Time;durP1;ratioP1;P1;durP2;ratioP2;P2;SDS_P1;SDS_P2;PMS_P1;PMS_P2;Temp;Humidity;BMP_temperature;BMP_pressure;BME280_temperature;BME280_humidity;BME280_pressure;Samples;Min_cycle;Max_cycle;Signal;HPM_P1;HPM_P2
2023/01/14 00:01:04;;;;;;;25.52;3.95;;;6.90;99.90;;;;;;5003955;28;20046;-62
2023/01/14 00:03:31;;;;;;;25.92;5.22;;;6.90;99.90;;;;;;5001814;28;20050;-62
2023/01/14 00:05:58;;;;;;;28.45;4.10;;;6.90;99.90;;;;;;5003630;28;20092;-62
2023/01/14 00:08:25;;;;;;;23.77;4.40;;;6.90;99.90;;;;;;4987231;28;20111;-62
2023/01/14 00:10:52;;;;;;;27.60;4.50;;;6.90;99.90;;;;;;4983855;28;20484;-62
2023/01/14 00:13:17;;;;;;;22.83;3.88;;;6.90;99.90;;;;;;5046148;28;20127;-61
2023/01/14 00:15:51;;;;;;;21.13;3.55;;;6.90;99.90;;;;;;5044048;28;20132;-62
2023/01/14 00:18:18;;;;;;;27.33;4.55;;;6.90;99.90;;;;;;5042969;28;20135;-61
2023/01/14 00:20:43;;;;;;;27.83;3.97;;;6.90;99.90;;;;;;5025844;28;20056;-62
2023/01/14 00:23:09;;;;;;;35.33;4.75;;;7.00;99.90;;;;;;5028577;28;20103;-61
2023/01/14 00:25:35;;;;;;;21.55;4.40;;;7.00;99.90;;;;;;5043257;28;20064;-62
2023/01/14 00:28:01;;;;;;;28.20;3.97;;;7.00;99.90;;;;;;5027093;28;20068;-62
2023/01/14 00:30:26;;;;;;;23.00;3.50;;;7.00;99.90;;;;;;5026926;28;20094;-60
2023/01/14 00:32:52;;;;;;;32.10;5.15;;;6.90;99.90;;;;;;5045512;28;20160;-61
2023/01/14 00:35:18;;;;;;;24.98;4.43;;;6.90;99.90;;;;;;5025047;28;20114;-62
2023/01/14 00:37:44;;;;;;;28.92;4.63;;;6.90;99.90;;;;;;5041233;28;20076;-62
2023/01/14 00:40:10;;;;;;;24.80;4.72;;;6.80;99.90;;;;;;5038738;28;20629;-61
2023/01/14 00:42:36;;;;;;;28.83;4.80;;;6.80;99.90;;;;;;5027339;28;20051;-61
2023/01/14 00:45:02;;;;;;;28.92;3.92;;;6.80;99.90;;;;;;5045479;28;20037;-62
2023/01/14 00:47:28;;;;;;;26.55;4.32;;;6.80;99.90;;;;;;5026842;28;20045;-62
2023/01/14 00:49:54;;;;;;;22.13;3.80;;;6.70;99.90;;;;;;5042769;28;20037;-62
2023/01/14 00:52:19;;;;;;;21.05;3.58;;;6.70;99.90;;;;;;5042819;28;20077;-62
2023/01/14 00:54:45;;;;;;;22.98;4.25;;;6.70;99.90;;;;;;5044440;28;20048;-62
2023/01/14 00:57:12;;;;;;;23.20;3.63;;;6.70;99.90;;;;;;5044634;28;20041;-62
2023/01/14 00:59:38;;;;;;;26.35;4.03;;;6.70;99.90;;;;;;5042684;28;20076;-62
2023/01/14 01:02:04;;;;;;;23.58;3.67;;;6.60;99.90;;;;;;4994018;28;20064;-63
2023/01/14 01:04:30;;;;;;;33.28;4.63;;;6.60;99.90;;;;;;5022841;28;20040;-62
2023/01/14 01:06:56;;;;;;;20.42;3.53;;;6.50;99.90;;;;;;5029792;28;20039;-62
2023/01/14 01:09:22;;;;;;;35.65;4.97;;;6.60;99.90;;;;;;5022190;28;20056;-62
2023/01/14 01:11:48;;;;;;;28.98;4.35;;;6.60;99.90;;;;;;5041906;28;20542;-62
2023/01/14 01:14:13;;;;;;;23.50;3.58;;;6.60;99.90;;;;;;5043033;28;20048;-61
2023/01/14 01:16:40;;;;;;;23.20;3.63;;;6.60;99.90;;;;;;5038065;28;20045;-62
2023/01/14 01:19:06;;;;;;;25.02;3.70;;;6.60;99.90;;;;;;5036111;28;20667;-62
2023/01/14 01:21:31;;;;;;;23.05;3.92;;;6.70;99.90;;;;;;5043399;28;20049;-62
2023/01/14 01:23:57;;;;;;;25.40;4.15;;;6.70;99.90;;;;;;5047572;28;20056;-63
2023/01/14 01:26:25;;;;;;;22.75;3.70;;;6.70;99.90;;;;;;5042309;28;20041;-62
2023/01/14 01:28:54;;;;;;;25.10;4.00;;;6.80;99.90;;;;;;5041809;28;20033;-63
2023/01/14 01:31:21;;;;;;;22.63;3.90;;;6.90;99.90;;;;;;5043825;28;20075;-63
2023/01/14 01:33:47;;;;;;;26.58;4.00;;;6.80;99.90;;;;;;5028381;28;20045;-62
2023/01/14 01:36:23;;;;;;;25.17;3.95;;;6.80;99.90;;;;;;5044560;28;20099;-63
2023/01/14 01:38:49;;;;;;;24.90;4.35;;;6.80;99.90;;;;;;5048587;28;20499;-62
2023/01/14 01:41:18;;;;;;;27.95;4.63;;;6.80;99.90;;;;;;5045186;28;20555;-62
2023/01/14 01:44:27;;;;;;;20.58;4.07;;;6.80;99.90;;;;;;5046140;28;20483;-61
2023/01/14 01:46:54;;;;;;;27.67;5.25;;;6.90;99.90;;;;;;5008194;28;20102;-62
2023/01/14 01:49:27;;;;;;;24.20;4.03;;;6.90;99.90;;;;;;5045549;28;20048;-62
2023/01/14 01:52:02;;;;;;;23.75;3.92;;;6.90;99.90;;;;;;5028420;28;20118;-62
2023/01/14 01:54:36;;;;;;;30.38;4.10;;;6.90;99.90;;;;;;5047017;28;20048;-63
2023/01/14 01:57:04;;;;;;;29.83;4.75;;;6.90;99.90;;;;;;5047291;28;20052;-62
2023/01/14 01:59:35;;;;;;;29.60;5.18;;;6.90;99.90;;;;;;5043511;28;20044;-62
2023/01/14 02:02:02;;;;;;;29.17;4.03;;;6.90;99.90;;;;;;5025213;28;20068;-62
2023/01/14 02:04:27;;;;;;;25.85;3.67;;;6.80;99.90;;;;;;5026816;28;20053;-62
2023/01/14 02:06:53;;;;;;;30.77;4.60;;;6.80;99.90;;;;;;5026174;28;20053;-62
2023/01/14 02:09:20;;;;;;;27.35;3.83;;;6.80;99.90;;;;;;5028620;28;20109;-62
2023/01/14 02:12:05;;;;;;;21.58;3.60;;;6.80;99.90;;;;;;5007169;28;20049;-62
2023/01/14 02:15:06;;;;;;;23.85;3.65;;;6.70;99.90;;;;;;5005320;28;20488;-61
2023/01/14 02:18:00;;;;;;;24.67;4.00;;;6.70;99.90;;;;;;4986366;28;20488;-62
2023/01/14 02:21:04;;;;;;;22.13;3.78;;;6.60;99.90;;;;;;5003057;28;20053;-62
2023/01/14 02:23:32;;;;;;;19.50;3.60;;;6.60;99.90;;;;;;4993114;28;20089;-62
2023/01/14 02:26:16;;;;;;;19.83;3.58;;;6.60;99.90;;;;;;5007510;28;20042;-62
2023/01/14 02:28:51;;;;;;;32.10;4.80;;;6.50;99.90;;;;;;5006905;28;20469;-62
2023/01/14 02:31:26;;;;;;;24.95;3.92;;;6.50;99.90;;;;;;4986059;28;20041;-62
2023/01/14 02:34:05;;;;;;;22.30;3.85;;;6.60;99.90;;;;;;5006909;28;20555;-61
2023/01/14 02:36:49;;;;;;;25.02;4.50;;;6.50;99.90;;;;;;5000922;28;20430;-60
2023/01/14 02:39:18;;;;;;;22.23;3.90;;;6.50;99.90;;;;;;5004658;28;20443;-62
2023/01/14 02:44:50;;;;;;;30.73;4.25;;;6.50;99.90;;;;;;5005509;28;20057;-62
2023/01/14 02:47:23;;;;;;;23.92;3.90;;;6.40;99.90;;;;;;5004786;28;20157;-62
2023/01/14 02:49:53;;;;;;;23.50;4.20;;;6.50;99.90;;;;;;5007017;28;20121;-62
2023/01/14 02:52:19;;;;;;;24.33;4.13;;;6.30;99.90;;;;;;5006195;28;20038;-62
2023/01/14 02:55:00;;;;;;;23.08;4.05;;;6.40;99.90;;;;;;5005863;28;20050;-61
2023/01/14 02:58:11;;;;;;;24.05;4.60;;;6.30;99.90;;;;;;5007333;28;20045;-62
2023/01/14 03:01:13;;;;;;;24.48;3.75;;;6.20;99.90;;;;;;4995700;28;20081;-62
2023/01/14 03:04:10;;;;;;;25.83;3.63;;;6.20;99.90;;;;;;5005548;28;20488;-62
2023/01/14 03:06:45;;;;;;;27.63;4.15;;;6.20;99.90;;;;;;5005544;28;20418;-61
2023/01/14 03:09:32;;;;;;;24.13;3.90;;;6.10;99.90;;;;;;5008039;28;20050;-62
2023/01/14 03:12:17;;;;;;;29.05;4.90;;;6.20;99.90;;;;;;5024167;28;20080;-63
2023/01/14 03:14:54;;;;;;;30.55;4.45;;;6.20;99.90;;;;;;5033358;28;20056;-61
2023/01/14 03:17:34;;;;;;;27.67;4.03;;;6.30;99.90;;;;;;5026457;28;20082;-62
2023/01/14 03:20:08;;;;;;;22.70;3.83;;;6.30;99.90;;;;;;5045968;28;20040;-61
2023/01/14 03:22:35;;;;;;;21.60;3.72;;;6.30;99.90;;;;;;5044577;28;20044;-62
2023/01/14 03:25:03;;;;;;;26.30;4.45;;;6.30;99.90;;;;;;5045181;28;20064;-63
2023/01/14 03:27:33;;;;;;;28.83;4.22;;;6.30;99.90;;;;;;5044683;28;20048;-62
2023/01/14 03:30:13;;;;;;;24.25;4.15;;;6.30;99.90;;;;;;5044452;28;20538;-62
2023/01/14 03:32:46;;;;;;;25.35;4.40;;;6.30;99.90;;;;;;5045102;28;20045;-63
2023/01/14 03:35:21;;;;;;;28.75;4.13;;;6.30;99.90;;;;;;5044095;28;20055;-61
2023/01/14 03:37:53;;;;;;;33.25;4.45;;;6.20;99.90;;;;;;5020460;28;20052;-63
2023/01/14 03:40:22;;;;;;;25.00;3.65;;;6.20;99.90;;;;;;5044262;28;20060;-62
2023/01/14 03:42:55;;;;;;;35.50;4.28;;;6.20;99.90;;;;;;5041949;28;20045;-62
2023/01/14 03:45:32;;;;;;;23.10;3.53;;;6.10;99.90;;;;;;5041707;28;20044;-62
2023/01/14 03:47:58;;;;;;;24.50;4.18;;;6.10;99.90;;;;;;5044051;28;20040;-62
2023/01/14 03:50:43;;;;;;;24.75;3.50;;;6.10;99.90;;;;;;5043556;28;20045;-62
2023/01/14 03:53:12;;;;;;;28.15;4.35;;;6.00;99.90;;;;;;5038087;28;20052;-62
2023/01/14 03:55:55;;;;;;;25.48;3.97;;;6.00;99.90;;;;;;5040436;28;20044;-62
2023/01/14 03:58:45;;;;;;;24.90;3.78;;;5.90;99.90;;;;;;5043355;28;20044;-62
2023/01/14 04:01:19;;;;;;;19.98;3.50;;;5.90;99.90;;;;;;5042755;28;20049;-62
2023/01/14 04:03:46;;;;;;;17.73;3.63;;;5.80;99.90;;;;;;5042922;28;20052;-61
2023/01/14 04:06:13;;;;;;;26.25;4.07;;;5.80;99.90;;;;;;5046638;28;20705;-62
2023/01/14 04:08:39;;;;;;;21.42;3.53;;;5.80;99.90;;;;;;5025760;28;20104;-62
2023/01/14 04:11:05;;;;;;;24.17;3.22;;;5.80;99.90;;;;;;5044043;28;20047;-62
2023/01/14 04:16:16;;;;;;;24.25;3.72;;;5.70;99.90;;;;;;5026702;28;20056;-62
2023/01/14 04:18:41;;;;;;;24.85;4.38;;;5.70;99.90;;;;;;5042822;28;20071;-62
2023/01/14 04:21:07;;;;;;;26.15;4.63;;;5.60;99.90;;;;;;5032555;28;20057;-62
2023/01/14 04:23:33;;;;;;;20.10;3.45;;;5.70;99.90;;;;;;5043492;28;20048;-62
2023/01/14 04:26:00;;;;;;;19.95;4.38;;;5.60;99.90;;;;;;5042663;28;20037;-60
2023/01/14 04:28:27;;;;;;;29.05;3.97;;;5.60;99.90;;;;;;5043479;28;20095;-62
2023/01/14 04:30:53;;;;;;;24.85;3.88;;;5.60;99.90;;;;;;5006635;28;20079;-62
2023/01/14 04:33:20;;;;;;;32.47;4.82;;;5.60;99.90;;;;;;5000698;28;20076;-62
2023/01/14 04:35:48;;;;;;;24.13;5.20;;;5.50;99.90;;;;;;5042924;28;20045;-62
2023/01/14 04:38:18;;;;;;;31.52;4.80;;;5.60;99.90;;;;;;5042513;28;20045;-62
2023/01/14 04:40:44;;;;;;;28.95;5.30;;;5.60;99.90;;;;;;5041457;28;20053;-62
2023/01/14 04:43:09;;;;;;;26.05;4.75;;;5.60;99.90;;;;;;5043870;28;20186;-62
2023/01/14 04:45:36;;;;;;;21.67;3.75;;;5.60;99.90;;;;;;5045184;28;20479;-62
2023/01/14 04:48:02;;;;;;;29.98;4.53;;;5.50;99.90;;;;;;5045773;28;20045;-62
2023/01/14 04:50:33;;;;;;;34.72;4.22;;;5.60;99.90;;;;;;5041944;28;20060;-62
2023/01/14 04:53:13;;;;;;;23.08;3.63;;;5.60;99.90;;;;;;5042668;28;20088;-62
2023/01/14 04:55:41;;;;;;;26.75;4.47;;;5.60;99.90;;;;;;5042230;28;20499;-62
2023/01/14 04:58:09;;;;;;;20.40;3.83;;;5.70;99.90;;;;;;5043634;28;20499;-62
2023/01/14 05:00:36;;;;;;;25.05;4.10;;;5.70;99.90;;;;;;5017513;28;20087;-62
2023/01/14 05:03:06;;;;;;;26.50;3.70;;;5.70;99.90;;;;;;5041094;28;20041;-62
2023/01/14 05:05:33;;;;;;;23.95;4.25;;;5.70;99.90;;;;;;5041965;28;20037;-62
2023/01/14 05:07:59;;;;;;;27.20;4.00;;;5.60;99.90;;;;;;5027988;28;20533;-62
2023/01/14 05:10:26;;;;;;;28.75;5.45;;;5.60;99.90;;;;;;5048895;28;20037;-62
2023/01/14 05:12:58;;;;;;;21.83;3.60;;;5.60;99.90;;;;;;5030891;28;20459;-60
2023/01/14 05:15:31;;;;;;;26.40;3.88;;;5.60;99.90;;;;;;5046926;28;20535;-62
2023/01/14 05:17:57;;;;;;;20.83;4.28;;;5.60;99.90;;;;;;5047496;28;20033;-62
2023/01/14 05:20:23;;;;;;;19.98;3.50;;;5.60;99.90;;;;;;5046777;28;20094;-61
2023/01/14 05:22:50;;;;;;;23.08;3.83;;;5.60;99.90;;;;;;5048154;28;20040;-62
2023/01/14 05:25:17;;;;;;;36.33;4.43;;;5.60;99.90;;;;;;5045241;28;20037;-62
2023/01/14 05:27:42;;;;;;;23.10;4.00;;;5.50;99.90;;;;;;5044459;28;20056;-62
2023/01/14 05:30:09;;;;;;;25.70;3.95;;;5.50;99.90;;;;;;5027981;28;20036;-62
2023/01/14 05:32:35;;;;;;;21.67;3.50;;;5.50;99.90;;;;;;5041396;28;20052;-62
2023/01/14 05:35:01;;;;;;;20.65;3.42;;;5.50;99.90;;;;;;5044464;28;20044;-61
2023/01/14 05:37:27;;;;;;;23.58;4.40;;;5.50;99.90;;;;;;5042998;28;20403;-62
2023/01/14 05:39:53;;;;;;;24.23;3.65;;;5.50;99.90;;;;;;5047923;28;20049;-60
2023/01/14 05:47:48;;;;;;;29.25;4.43;;;5.50;99.90;;;;;;5047963;28;20071;-62
2023/01/14 05:50:14;;;;;;;25.40;3.80;;;5.50;99.90;;;;;;5046083;28;20503;-62
2023/01/14 05:52:40;;;;;;;22.73;3.97;;;5.50;99.90;;;;;;5047860;28;20120;-62
2023/01/14 05:55:09;;;;;;;27.33;4.05;;;5.50;99.90;;;;;;5029617;28;20604;-61
2023/01/14 05:57:35;;;;;;;22.92;3.40;;;5.50;99.90;;;;;;5047241;28;20131;-62
2023/01/14 06:00:01;;;;;;;28.17;4.45;;;5.50;99.90;;;;;;5043981;28;20037;-62
2023/01/14 06:08:00;;;;;;;22.55;3.97;;;5.60;99.90;;;;;;5043053;28;20052;-62
2023/01/14 06:10:26;;;;;;;24.25;3.92;;;5.50;99.90;;;;;;5047138;28;20109;-62
2023/01/14 06:12:59;;;;;;;27.85;4.45;;;5.50;99.90;;;;;;5045664;28;20126;-62
2023/01/14 06:15:35;;;;;;;21.45;3.97;;;5.50;99.90;;;;;;5032162;28;20472;-60
2023/01/14 06:18:09;;;;;;;22.60;4.55;;;5.50;99.90;;;;;;5022575;28;20539;-62
2023/01/14 06:20:38;;;;;;;30.10;4.95;;;5.50;99.90;;;;;;5020586;28;20944;-62
2023/01/14 06:23:04;;;;;;;25.55;4.18;;;5.50;99.90;;;;;;5029334;28;20095;-62
2023/01/14 06:25:32;;;;;;;25.65;4.53;;;5.50;99.90;;;;;;5033266;28;20037;-62
2023/01/14 06:28:00;;;;;;;28.50;5.13;;;5.50;99.90;;;;;;5025389;28;20080;-62
2023/01/14 06:30:27;;;;;;;30.70;4.90;;;5.50;99.90;;;;;;5032950;28;20491;-62
2023/01/14 06:32:53;;;;;;;34.63;5.40;;;5.50;99.90;;;;;;5044978;28;20036;-62
2023/01/14 06:35:19;;;;;;;29.73;4.80;;;5.60;99.90;;;;;;5042268;28;20067;-61
2023/01/14 06:37:46;;;;;;;33.58;5.15;;;5.50;99.90;;;;;;5047406;28;20037;-62
2023/01/14 06:40:13;;;;;;;31.13;4.70;;;5.50;99.90;;;;;;5042271;28;20422;-62
2023/01/14 06:42:40;;;;;;;26.73;5.00;;;5.50;99.90;;;;;;5045961;28;20171;-62
2023/01/14 06:45:10;;;;;;;36.95;5.32;;;5.60;99.90;;;;;;5044454;28;20045;-62
2023/01/14 06:47:36;;;;;;;25.85;4.93;;;5.60;99.90;;;;;;5048502;28;20082;-62
2023/01/14 06:50:04;;;;;;;37.17;5.75;;;5.50;99.90;;;;;;5028707;28;20037;-62
2023/01/14 06:52:30;;;;;;;31.70;5.45;;;5.50;99.90;;;;;;5048185;28;20044;-62
2023/01/14 06:54:55;;;;;;;33.45;5.07;;;5.50;99.90;;;;;;5046604;28;20044;-61
2023/01/14 06:57:22;;;;;;;30.73;5.38;;;5.50;99.90;;;;;;5043072;28;20170;-61
2023/01/14 06:59:48;;;;;;;30.40;5.70;;;5.60;99.90;;;;;;5034473;28;20172;-58
2023/01/14 07:02:14;;;;;;;31.30;5.88;;;5.50;99.90;;;;;;5039827;28;20041;-61
2023/01/14 07:04:40;;;;;;;31.02;6.50;;;5.50;99.90;;;;;;5024952;28;20049;-61
2023/01/14 07:07:06;;;;;;;36.35;6.20;;;5.50;99.90;;;;;;5047961;28;20395;-61
2023/01/14 07:09:32;;;;;;;31.73;6.15;;;5.50;99.90;;;;;;5047878;28;20037;-61
2023/01/14 07:11:58;;;;;;;33.13;6.78;;;5.50;99.90;;;;;;5042375;28;20542;-62
2023/01/14 07:14:24;;;;;;;25.17;6.22;;;5.50;99.90;;;;;;5035567;28;20086;-59
2023/01/14 07:16:49;;;;;;;40.53;8.13;;;5.50;99.90;;;;;;5043524;28;20048;-62
2023/01/14 07:19:15;;;;;;;41.40;7.55;;;5.50;99.90;;;;;;5044175;28;20076;-62
2023/01/14 07:21:41;;;;;;;38.75;7.72;;;5.60;99.90;;;;;;5027199;28;20045;-62
2023/01/14 07:24:07;;;;;;;34.90;7.80;;;5.50;99.90;;;;;;5046313;28;20045;-62
2023/01/14 07:26:33;;;;;;;31.35;6.93;;;5.50;99.90;;;;;;5028246;28;20049;-62
2023/01/14 07:28:58;;;;;;;30.60;6.53;;;5.50;99.90;;;;;;5042027;28;20056;-62
2023/01/14 07:31:24;;;;;;;36.47;7.53;;;5.60;99.90;;;;;;5023497;28;20049;-61
2023/01/14 07:33:50;;;;;;;39.20;6.63;;;5.50;99.90;;;;;;5046013;28;20053;-62
2023/01/14 07:36:16;;;;;;;35.03;6.40;;;5.60;99.90;;;;;;5045634;28;20047;-62
2023/01/14 07:38:42;;;;;;;29.27;7.07;;;5.60;99.90;;;;;;5043477;28;20041;-62
2023/01/14 07:41:09;;;;;;;34.72;6.45;;;5.60;99.90;;;;;;5037664;28;20040;-62
2023/01/14 07:43:35;;;;;;;34.63;6.65;;;5.60;99.90;;;;;;5027778;28;20637;-62
2023/01/14 07:46:01;;;;;;;38.28;7.20;;;5.70;99.90;;;;;;5023832;28;20037;-61
2023/01/14 07:48:28;;;;;;;40.70;6.63;;;5.70;99.90;;;;;;5042147;28;20037;-62
2023/01/14 07:50:54;;;;;;;35.65;6.78;;;5.70;99.90;;;;;;5046382;28;20041;-62
2023/01/14 07:53:20;;;;;;;41.58;7.43;;;5.70;99.90;;;;;;5045834;28;20048;-62
2023/01/14 07:55:46;;;;;;;37.30;6.10;;;5.70;99.90;;;;;;5042441;28;20623;-62
2023/01/14 07:58:14;;;;;;;37.00;7.03;;;5.70;99.90;;;;;;5037524;28;20041;-62
2023/01/14 08:00:40;;;;;;;39.72;7.25;;;5.70;99.90;;;;;;5041760;28;20071;-62
2023/01/14 08:03:05;;;;;;;34.85;7.25;;;5.80;99.90;;;;;;5043460;28;20187;-62
2023/01/14 08:05:34;;;;;;;41.17;6.82;;;5.80;99.90;;;;;;5045774;28;20462;-62
2023/01/14 08:08:00;;;;;;;33.35;5.85;;;5.80;99.90;;;;;;5047071;28;20386;-62
2023/01/14 08:10:26;;;;;;;32.25;6.20;;;5.80;99.90;;;;;;5011540;28;20037;-61
2023/01/14 08:12:51;;;;;;;33.47;6.47;;;5.80;99.90;;;;;;5026479;28;20063;-62
2023/01/14 08:15:18;;;;;;;37.58;6.72;;;5.80;99.90;;;;;;5024598;28;20414;-62
2023/01/14 08:17:44;;;;;;;39.25;7.82;;;5.90;99.90;;;;;;5043583;28;20133;-61
2023/01/14 08:20:10;;;;;;;32.90;6.72;;;5.90;99.90;;;;;;5027639;28;20168;-62
2023/01/14 08:22:36;;;;;;;37.92;6.70;;;5.90;99.90;;;;;;5045789;28;20344;-62
2023/01/14 08:25:03;;;;;;;37.28;6.85;;;5.90;99.90;;;;;;5044742;28;20063;-61
2023/01/14 08:27:30;;;;;;;36.10;6.15;;;5.90;99.90;;;;;;5043032;28;20548;-62
2023/01/14 08:29:56;;;;;;;35.88;6.93;;;5.90;99.90;;;;;;5025605;28;20152;-62
2023/01/14 08:32:23;;;;;;;33.80;5.97;;;5.90;99.90;;;;;;5043104;28;20144;-62
2023/01/14 08:34:48;;;;;;;33.95;6.40;;;6.00;99.90;;;;;;5025510;28;20048;-62
2023/01/14 08:37:14;;;;;;;38.65;6.60;;;6.00;99.90;;;;;;5025702;28;20063;-62
2023/01/14 08:39:40;;;;;;;35.15;7.35;;;6.00;99.90;;;;;;5040595;28;20055;-62
2023/01/14 08:42:06;;;;;;;38.72;6.32;;;6.00;99.90;;;;;;5024027;28;20083;-62
2023/01/14 08:44:32;;;;;;;38.80;7.03;;;6.00;99.90;;;;;;5024593;28;20492;-62
2023/01/14 08:46:58;;;;;;;29.58;6.40;;;6.00;99.90;;;;;;5027100;28;20099;-62
2023/01/14 08:49:23;;;;;;;35.03;6.63;;;6.00;99.90;;;;;;5025952;28;20049;-63
2023/01/14 08:51:49;;;;;;;25.90;6.38;;;6.00;99.90;;;;;;5045538;28;20041;-62
2023/01/14 08:54:15;;;;;;;40.35;5.75;;;5.90;99.90;;;;;;5025887;28;20051;-62
2023/01/14 08:56:41;;;;;;;32.03;5.68;;;5.90;99.90;;;;;;5015580;28;20135;-62
2023/01/14 08:59:06;;;;;;;39.30;6.05;;;5.90;99.90;;;;;;5042323;28;20091;-62
2023/01/14 09:01:32;;;;;;;29.63;6.18;;;5.90;99.90;;;;;;4998387;28;20080;-62
2023/01/14 09:04:00;;;;;;;26.88;5.90;;;5.90;99.90;;;;;;5045506;28;20534;-62
2023/01/14 09:06:26;;;;;;;29.75;5.00;;;6.00;99.90;;;;;;5043924;28;20037;-61
2023/01/14 09:17:20;;;;;;;24.95;4.78;;;6.00;99.90;;;;;;5045298;28;20080;-62
2023/01/14 09:19:47;;;;;;;;;;;6.00;99.90;;;;;;5027212;28;20051;-61
2023/01/14 09:22:26;;;;;;;29.42;5.20;;;6.00;99.90;;;;;;5028453;28;20011;-62
2023/01/14 09:24:52;;;;;;;22.42;4.70;;;6.00;99.90;;;;;;5043831;28;20045;-62
2023/01/14 09:27:19;;;;;;;36.63;5.75;;;6.00;99.90;;;;;;5044089;28;20502;-62
2023/01/14 09:29:44;;;;;;;27.10;5.65;;;6.00;99.90;;;;;;5024746;28;20096;-62
2023/01/14 09:32:12;;;;;;;31.55;5.22;;;6.00;99.90;;;;;;5010801;28;20541;-62
2023/01/14 09:34:40;;;;;;;19.83;4.30;;;6.10;99.90;;;;;;5024925;28;20144;-62
2023/01/14 09:37:06;;;;;;;22.85;4.97;;;6.00;99.90;;;;;;5028079;28;20049;-62
2023/01/14 09:39:31;;;;;;;27.33;5.35;;;6.00;99.90;;;;;;5026333;28;20037;-61
2023/01/14 09:42:03;;;;;;;27.33;4.80;;;6.00;99.90;;;;;;5041441;28;20138;-62
2023/01/14 09:44:29;;;;;;;28.55;4.70;;;6.00;99.90;;;;;;5017352;28;20491;-62
2023/01/14 09:46:56;;;;;;;19.85;4.65;;;6.00;99.90;;;;;;5044073;28;20045;-62
2023/01/14 09:49:24;;;;;;;25.15;5.00;;;6.00;99.90;;;;;;5045710;28;20116;-62
2023/01/14 09:52:13;;;;;;;19.38;4.20;;;6.00;99.90;;;;;;5044641;28;20041;-62
2023/01/14 09:55:10;;;;;;;24.55;4.72;;;6.00;99.90;;;;;;5047185;28;20068;-62
2023/01/14 09:57:45;;;;;;;25.20;5.03;;;6.00;99.90;;;;;;5028469;28;20053;-62
2023/01/14 10:00:29;;;;;;;21.98;4.20;;;6.00;99.90;;;;;;5046660;28;20052;-62
2023/01/14 10:03:29;;;;;;;16.80;3.80;;;6.00;99.90;;;;;;5030863;28;20171;-62
2023/01/14 10:05:59;;;;;;;22.60;3.92;;;6.00;99.90;;;;;;5029987;28;20099;-62
2023/01/14 10:08:28;;;;;;;15.23;4.18;;;6.00;99.90;;;;;;5048668;28;20040;-62
2023/01/14 10:10:55;;;;;;;15.90;3.80;;;6.00;99.90;;;;;;5003579;28;20071;-61
2023/01/14 10:13:35;;;;;;;15.18;3.67;;;6.00;99.90;;;;;;5047018;28;20061;-63
2023/01/14 10:16:17;;;;;;;12.77;3.00;;;6.10;99.90;;;;;;5038411;28;20087;-61
2023/01/14 10:18:53;;;;;;;12.40;3.33;;;6.10;99.90;;;;;;5039310;28;20098;-62
2023/01/14 10:21:57;;;;;;;9.48;3.10;;;6.10;99.90;;;;;;5038324;28;20114;-63
2023/01/14 10:24:23;;;;;;;12.10;3.40;;;6.10;99.90;;;;;;5013833;28;20072;-62
2023/01/14 10:26:50;;;;;;;10.90;3.00;;;6.10;99.90;;;;;;5023672;28;20041;-62
2023/01/14 10:29:22;;;;;;;9.95;2.97;;;6.20;99.90;;;;;;5025822;28;20112;-62
2023/01/14 10:32:00;;;;;;;10.65;2.88;;;6.20;99.90;;;;;;5041860;28;20040;-61
2023/01/14 10:34:37;;;;;;;9.23;2.65;;;6.20;99.90;;;;;;5044170;28;20131;-62
2023/01/14 10:37:03;;;;;;;10.20;2.50;;;6.20;99.90;;;;;;5020382;28;20106;-62
2023/01/14 10:39:29;;;;;;;7.43;2.50;;;6.30;99.90;;;;;;5042004;28;20048;-62
2023/01/14 10:42:00;;;;;;;9.07;2.30;;;6.30;99.90;;;;;;5042056;28;20033;-62
2023/01/14 10:44:34;;;;;;;7.35;2.03;;;6.40;99.90;;;;;;5047524;28;20399;-61
2023/01/14 10:47:08;;;;;;;10.90;2.30;;;6.40;99.90;;;;;;5046793;28;20048;-62
2023/01/14 10:49:37;;;;;;;9.13;2.10;;;6.40;99.90;;;;;;5047060;28;20513;-62
2023/01/14 10:52:22;;;;;;;10.52;2.35;;;6.50;99.90;;;;;;5046931;28;20084;-62
2023/01/14 10:54:57;;;;;;;5.65;1.83;;;6.50;99.90;;;;;;5022518;28;20051;-62
2023/01/14 10:57:24;;;;;;;6.80;1.75;;;6.60;99.90;;;;;;5027884;28;20080;-61
2023/01/14 10:59:52;;;;;;;7.93;2.17;;;6.60;99.90;;;;;;5026765;28;20579;-62
2023/01/14 11:02:21;;;;;;;6.22;2.05;;;6.60;99.90;;;;;;5046032;28;20087;-62
2023/01/14 11:04:48;;;;;;;10.73;2.30;;;6.70;99.90;;;;;;5045452;28;20128;-61
2023/01/14 11:07:29;;;;;;;5.80;2.13;;;6.70;99.90;;;;;;5025836;28;20175;-62
2023/01/14 11:09:57;;;;;;;8.43;2.30;;;6.70;99.90;;;;;;5037114;28;20053;-62
2023/01/14 11:12:31;;;;;;;10.27;2.50;;;6.70;99.90;;;;;;5034041;28;20053;-62
2023/01/14 11:14:58;;;;;;;6.70;1.95;;;6.70;99.90;;;;;;5041300;28;20052;-62
2023/01/14 11:17:30;;;;;;;8.60;2.50;;;6.80;99.90;;;;;;5041722;28;20044;-62
2023/01/14 11:20:21;;;;;;;8.50;2.35;;;6.80;99.90;;;;;;5043318;28;20204;-62
2023/01/14 11:22:58;;;;;;;5.40;2.10;;;6.80;99.90;;;;;;5044092;28;20052;-62
2023/01/14 11:25:24;;;;;;;5.70;2.17;;;6.80;99.90;;;;;;5027228;28;20045;-61
2023/01/14 11:27:51;;;;;;;5.20;2.20;;;6.80;99.90;;;;;;5027681;28;20049;-62
2023/01/14 11:30:19;;;;;;;8.38;1.98;;;6.80;99.90;;;;;;5020690;28;20365;-62
2023/01/14 11:32:50;;;;;;;4.78;1.88;;;6.80;99.90;;;;;;5028071;28;20491;-62
2023/01/14 11:35:24;;;;;;;6.18;2.10;;;6.80;99.90;;;;;;5027822;28;21161;-62
2023/01/14 11:37:54;;;;;;;6.70;2.05;;;6.80;99.90;;;;;;5046424;28;20053;-62
2023/01/14 11:43:25;;;;;;;8.05;1.95;;;6.90;99.90;;;;;;5045196;28;20068;-62
2023/01/14 11:46:03;;;;;;;5.72;2.10;;;6.80;99.90;;;;;;5024810;28;20154;-62
2023/01/14 11:48:29;;;;;;;6.43;2.20;;;6.90;99.90;;;;;;5043260;28;20040;-62
2023/01/14 11:51:00;;;;;;;5.10;1.80;;;6.90;99.90;;;;;;5043354;28;20047;-62
2023/01/14 11:53:45;;;;;;;6.82;2.20;;;6.90;99.90;;;;;;5046490;28;20109;-62
2023/01/14 11:56:34;;;;;;;8.20;2.00;;;6.90;99.90;;;;;;5034579;28;21253;-62
2023/01/14 11:59:25;;;;;;;4.20;1.98;;;6.90;99.90;;;;;;5036211;28;20102;-62
2023/01/14 12:01:55;;;;;;;6.25;1.77;;;6.90;99.90;;;;;;5035594;28;20118;-62
2023/01/14 12:04:32;;;;;;;5.68;2.33;;;6.90;99.90;;;;;;5036552;28;20075;-62
2023/01/14 12:07:08;;;;;;;5.25;1.88;;;6.90;99.90;;;;;;5036709;28;20053;-62
2023/01/14 12:09:59;;;;;;;5.72;1.80;;;7.00;99.90;;;;;;4997526;28;20040;-60
2023/01/14 12:18:45;;;;;;;4.18;1.83;;;7.00;99.90;;;;;;5003202;28;20044;-62
2023/01/14 12:21:14;;;;;;;5.47;1.80;;;7.00;99.90;;;;;;5001848;28;20119;-62
2023/01/14 12:24:05;;;;;;;5.22;2.00;;;7.00;99.90;;;;;;5003159;28;20042;-62
2023/01/14 12:26:43;;;;;;;6.18;1.85;;;7.10;99.90;;;;;;5000466;28;20053;-62
2023/01/14 12:29:26;;;;;;;3.90;1.83;;;7.00;99.90;;;;;;4997909;28;20042;-61
2023/01/14 12:32:18;;;;;;;4.82;1.77;;;7.10;99.90;;;;;;5002327;28;20113;-61
2023/01/14 12:34:54;;;;;;;4.40;1.88;;;7.10;99.90;;;;;;5001605;28;20038;-62
2023/01/14 12:37:53;;;;;;;6.13;2.05;;;7.10;99.90;;;;;;4997596;28;20046;-62
2023/01/14 12:46:12;;;;;;;3.00;1.48;;;7.20;99.90;;;;;;4992593;28;20104;-62
2023/01/14 12:48:38;;;;;;;;;;;7.30;99.90;;;;;;4997975;28;20063;-62
2023/01/14 12:51:16;;;;;;;5.97;2.00;;;7.30;99.90;;;;;;4998461;28;19921;-62
2023/01/14 12:53:53;;;;;;;5.03;1.50;;;7.30;99.90;;;;;;5014026;28;20100;-62
2023/01/14 12:56:48;;;;;;;2.70;1.58;;;7.40;99.90;;;;;;4996529;28;20046;-61
2023/01/14 12:59:21;;;;;;;6.60;1.77;;;7.40;99.90;;;;;;4990168;28;20196;-62
2023/01/14 13:01:51;;;;;;;;;;;7.40;99.90;;;;;;4999569;28;20050;-62
2023/01/14 13:04:27;;;;;;;3.97;1.65;;;7.40;99.90;;;;;;4995923;28;20299;-62
2023/01/14 13:06:59;;;;;;;3.53;1.30;;;7.50;99.90;;;;;;4998169;28;20423;-62
2023/01/14 13:09:30;;;;;;;3.00;1.60;;;7.60;99.90;;;;;;4999082;28;20046;-62
2023/01/14 13:11:59;;;;;;;2.30;1.38;;;7.60;99.90;;;;;;4999352;28;20078;-61
2023/01/14 13:14:38;;;;;;;2.22;1.40;;;7.60;99.90;;;;;;5028853;28;20060;-60
2023/01/14 13:17:32;;;;;;;4.45;1.65;;;7.70;99.90;;;;;;5039115;28;20049;-61
2023/01/14 13:19:59;;;;;;;3.75;1.40;;;7.70;99.90;;;;;;4987884;28;20061;-62
2023/01/14 13:22:55;;;;;;;4.20;1.50;;;7.80;99.90;;;;;;5037720;28;20052;-61
2023/01/14 13:25:38;;;;;;;3.65;1.80;;;7.80;99.90;;;;;;5022208;28;20567;-62
2023/01/14 13:28:14;;;;;;;3.90;1.40;;;7.90;99.90;;;;;;5038867;28;20503;-62
2023/01/14 13:31:01;;;;;;;4.60;1.50;;;7.90;99.90;;;;;;5044281;28;20498;-60
2023/01/14 13:33:33;;;;;;;3.80;1.90;;;7.90;99.90;;;;;;5043914;28;20106;-61
2023/01/14 13:36:08;;;;;;;2.55;1.40;;;8.00;99.90;;;;;;5025947;28;20045;-62
2023/01/14 13:38:46;;;;;;;4.40;1.40;;;8.00;99.90;;;;;;5039683;28;20037;-61
2023/01/14 13:41:32;;;;;;;2.25;1.20;;;8.10;99.90;;;;;;5043746;28;20423;-62
2023/01/14 13:43:59;;;;;;;2.03;1.20;;;8.20;99.90;;;;;;5040428;28;20045;-62
2023/01/14 13:46:38;;;;;;;2.05;1.20;;;8.20;99.90;;;;;;5045272;28;20080;-62
2023/01/14 13:49:25;;;;;;;4.68;1.20;;;8.20;99.90;;;;;;5045553;28;21028;-62
2023/01/14 13:52:01;;;;;;;2.10;1.00;;;8.30;99.90;;;;;;5023769;28;20052;-62